Time;durP1;ratioP1;P1;durP2;ratioP2;P2;SDS_P1;SDS_P2;PMS_P1;PMS_P2;Temp;Humidity;BMP_temperature;BMP_pressure;BME280_temperature;BME280_humidity;BME280_pressure;Samples;Min_cycle;Max_cycle;Signal;HPM_P1;HPM_P2
2023/10/31 00:01:10;;;;;;;1.20;1.20;;;;;;;;;;5023341;28;20212;-68
2023/10/31 00:03:37;;;;;;;2.37;1.70;;;;;;;;;;5016280;28;20207;-68
2023/10/31 00:06:04;;;;;;;3.53;1.50;;;;;;;;;;5017928;28;20205;-68
2023/10/31 00:08:33;;;;;;;1.80;1.70;;;;;;;;;;5020877;28;20205;-68
2023/10/31 00:11:00;;;;;;;1.63;1.53;;;;;;;;;;5021933;28;20204;-68
2023/10/31 00:13:27;;;;;;;1.50;1.40;;;;;;;;;;5022492;28;20200;-67
2023/10/31 00:15:54;;;;;;;1.50;1.40;;;;;;;;;;5017660;28;20209;-68
2023/10/31 00:18:21;;;;;;;1.50;1.40;;;;;;;;;;5021011;28;20243;-68
2023/10/31 00:20:48;;;;;;;1.63;1.40;;;;;;;;;;5021080;28;20201;-69
2023/10/31 00:23:16;;;;;;;2.50;1.70;;;;;;;;;;5021474;28;20719;-68
2023/10/31 00:25:45;;;;;;;1.73;1.63;;;;;;;;;;5021730;28;20212;-68
2023/10/31 00:28:12;;;;;;;2.20;1.97;;;;;;;;;;5015629;28;20208;-68
2023/10/31 00:30:39;;;;;;;2.63;2.20;;;;;;;;;;5022677;28;20212;-68
2023/10/31 00:33:06;;;;;;;1.90;1.80;;;;;;;;;;5022727;28;20295;-68
2023/10/31 00:35:33;;;;;;;2.73;2.40;;;;;;;;;;5021189;28;20205;-68
2023/10/31 00:38:01;;;;;;;2.17;2.07;;;;;;;;;;5015594;28;20213;-68
2023/10/31 00:40:28;;;;;;;2.10;1.90;;;;;;;;;;5018809;28;20288;-68
2023/10/31 00:42:58;;;;;;;2.63;2.20;;;;;;;;;;5020577;28;20200;-68
2023/10/31 00:45:25;;;;;;;2.60;2.40;;;;;;;;;;5016565;28;20204;-68
2023/10/31 00:47:52;;;;;;;2.90;2.20;;;;;;;;;;5020043;28;20200;-68
2023/10/31 00:50:19;;;;;;;3.43;2.00;;;;;;;;;;5018132;28;20215;-68
2023/10/31 00:52:46;;;;;;;1.97;1.83;;;;;;;;;;5019532;28;20244;-68
2023/10/31 00:55:13;;;;;;;1.97;1.80;;;;;;;;;;5023314;28;20203;-68
2023/10/31 00:57:40;;;;;;;1.97;1.80;;;;;;;;;;5017725;28;20234;-64
2023/10/31 01:00:10;;;;;;;2.70;1.90;;;;;;;;;;5017425;28;20197;-64
2023/10/31 01:02:37;;;;;;;1.83;1.70;;;;;;;;;;5020535;28;20303;-64
2023/10/31 01:05:04;;;;;;;1.60;1.50;;;;;;;;;;5014839;28;20212;-64
2023/10/31 01:07:31;;;;;;;1.60;1.50;;;;;;;;;;5020365;28;20193;-64
2023/10/31 01:09:58;;;;;;;2.23;1.90;;;;;;;;;;5018980;28;20211;-63
2023/10/31 01:12:27;;;;;;;1.97;1.70;;;;;;;;;;5016732;28;20201;-64
2023/10/31 01:14:54;;;;;;;2.50;1.50;;;;;;;;;;5019311;28;20204;-64
2023/10/31 01:17:23;;;;;;;3.33;1.60;;;;;;;;;;5018472;28;20230;-64
2023/10/31 01:19:50;;;;;;;1.73;1.47;;;;;;;;;;5014687;28;20200;-64
2023/10/31 01:22:17;;;;;;;4.17;1.50;;;;;;;;;;5021301;28;20205;-64
2023/10/31 01:24:44;;;;;;;4.37;1.43;;;;;;;;;;5016529;28;20204;-65
2023/10/31 01:27:11;;;;;;;1.70;1.60;;;;;;;;;;5018453;28;20215;-64
2023/10/31 01:29:38;;;;;;;2.53;1.60;;;;;;;;;;5019144;28;20208;-64
2023/10/31 01:32:06;;;;;;;1.90;1.70;;;;;;;;;;5015135;28;20204;-65
2023/10/31 01:34:34;;;;;;;2.50;1.60;;;;;;;;;;5020151;28;20201;-64
2023/10/31 01:37:01;;;;;;;2.20;1.40;;;;;;;;;;5014069;28;20234;-64
2023/10/31 01:39:28;;;;;;;1.40;1.30;;;;;;;;;;5016470;28;20201;-65
2023/10/31 01:41:56;;;;;;;1.93;1.50;;;;;;;;;;5016610;28;20205;-64
2023/10/31 01:44:23;;;;;;;1.80;1.47;;;;;;;;;;5016764;28;20214;-63
2023/10/31 01:46:50;;;;;;;2.33;1.50;;;;;;;;;;5018107;28;20204;-65
2023/10/31 01:49:18;;;;;;;2.50;1.53;;;;;;;;;;5017710;28;20212;-63
2023/10/31 01:51:47;;;;;;;1.50;1.40;;;;;;;;;;5017131;28;20228;-64
2023/10/31 01:54:14;;;;;;;2.87;1.50;;;;;;;;;;5015936;28;20197;-64
2023/10/31 01:56:41;;;;;;;2.30;1.70;;;;;;;;;;5018187;28;20208;-64
2023/10/31 01:59:09;;;;;;;3.23;1.50;;;;;;;;;;5021298;28;20224;-64
2023/10/31 02:01:37;;;;;;;2.77;1.80;;;;;;;;;;5019381;28;20204;-64
2023/10/31 02:04:05;;;;;;;2.73;1.90;;;;;;;;;;5013015;28;20208;-65
2023/10/31 02:06:32;;;;;;;2.03;1.83;;;;;;;;;;5016128;28;20295;-64
2023/10/31 02:09:00;;;;;;;1.87;1.50;;;;;;;;;;5020776;28;20204;-68
2023/10/31 02:11:28;;;;;;;1.63;1.50;;;;;;;;;;5021719;28;20207;-68
2023/10/31 02:13:55;;;;;;;1.60;1.50;;;;;;;;;;5019801;28;20205;-68
2023/10/31 02:16:22;;;;;;;1.80;1.70;;;;;;;;;;5021402;28;20200;-67
2023/10/31 02:18:49;;;;;;;2.70;1.70;;;;;;;;;;5017644;28;20221;-68
2023/10/31 02:21:16;;;;;;;1.80;1.63;;;;;;;;;;5021726;28;20215;-68
2023/10/31 02:23:45;;;;;;;1.30;1.20;;;;;;;;;;5021671;28;20213;-69
2023/10/31 02:26:12;;;;;;;2.50;1.60;;;;;;;;;;5021732;28;20201;-69
2023/10/31 02:28:40;;;;;;;2.27;1.77;;;;;;;;;;5025151;28;20204;-69
2023/10/31 02:31:07;;;;;;;2.03;1.70;;;;;;;;;;5023902;28;20213;-69
2023/10/31 02:33:34;;;;;;;3.10;1.60;;;;;;;;;;5020875;28;20204;-68
2023/10/31 02:36:01;;;;;;;3.80;1.70;;;;;;;;;;5023632;28;20200;-69
2023/10/31 02:38:28;;;;;;;2.40;1.50;;;;;;;;;;5018927;28;20215;-69
2023/10/31 02:40:57;;;;;;;2.57;1.70;;;;;;;;;;5018230;28;20208;-69
2023/10/31 02:43:24;;;;;;;1.83;1.60;;;;;;;;;;5022900;28;20207;-68
2023/10/31 02:45:51;;;;;;;1.60;1.50;;;;;;;;;;5019965;28;20200;-68
2023/10/31 02:48:18;;;;;;;2.17;1.50;;;;;;;;;;5020638;28;20208;-69
2023/10/31 02:50:45;;;;;;;1.63;1.50;;;;;;;;;;5016854;28;20201;-69
2023/10/31 02:53:12;;;;;;;2.90;1.60;;;;;;;;;;5020909;28;20200;-68
2023/10/31 02:55:40;;;;;;;1.80;1.60;;;;;;;;;;5020364;28;20215;-68
2023/10/31 02:58:08;;;;;;;1.70;1.60;;;;;;;;;;5026333;28;20229;-68
2023/10/31 03:00:35;;;;;;;2.00;1.60;;;;;;;;;;5024072;28;20204;-69
2023/10/31 03:03:02;;;;;;;1.77;1.50;;;;;;;;;;5016067;28;20208;-68
2023/10/31 03:05:29;;;;;;;1.50;1.40;;;;;;;;;;5017856;28;20196;-68
2023/10/31 03:07:56;;;;;;;1.83;1.53;;;;;;;;;;5021137;28;20200;-68
2023/10/31 03:10:23;;;;;;;1.87;1.40;;;;;;;;;;5022806;28;20204;-68
2023/10/31 03:12:51;;;;;;;2.60;1.40;;;;;;;;;;5014524;28;20391;-68
2023/10/31 03:15:19;;;;;;;1.63;1.50;;;;;;;;;;5015460;28;20209;-69
2023/10/31 03:17:46;;;;;;;2.27;1.57;;;;;;;;;;5023004;28;20239;-68
2023/10/31 03:20:13;;;;;;;1.80;1.50;;;;;;;;;;5014732;28;20224;-67
2023/10/31 03:22:40;;;;;;;1.60;1.50;;;;;;;;;;5017949;28;20216;-68
2023/10/31 03:25:08;;;;;;;1.93;1.57;;;;;;;;;;5018212;28;20223;-68
2023/10/31 03:27:35;;;;;;;2.20;1.30;;;;;;;;;;5016154;28;20200;-68
2023/10/31 03:30:02;;;;;;;2.13;1.43;;;;;;;;;;5020314;28;20205;-68
2023/10/31 03:32:31;;;;;;;2.13;1.20;;;;;;;;;;5015914;28;20345;-69
2023/10/31 03:34:58;;;;;;;2.00;1.53;;;;;;;;;;5015820;28;20204;-68
2023/10/31 03:37:25;;;;;;;1.93;1.63;;;;;;;;;;5022557;28;20204;-68
2023/10/31 03:39:52;;;;;;;2.00;1.57;;;;;;;;;;5017999;28;20201;-68
2023/10/31 03:42:19;;;;;;;1.93;1.40;;;;;;;;;;5021489;28;20203;-70
2023/10/31 03:44:45;;;;;;;1.57;1.40;;;;;;;;;;5017698;28;20205;-68
2023/10/31 03:47:12;;;;;;;1.90;1.67;;;;;;;;;;5023147;28;20200;-68
2023/10/31 03:49:41;;;;;;;4.07;1.50;;;;;;;;;;5017931;28;20200;-69
2023/10/31 03:52:08;;;;;;;2.23;1.70;;;;;;;;;;5019627;28;20232;-69
2023/10/31 03:54:35;;;;;;;1.43;1.33;;;;;;;;;;5013930;28;20212;-69
2023/10/31 03:57:02;;;;;;;2.50;1.50;;;;;;;;;;5015521;28;20200;-68
2023/10/31 03:59:29;;;;;;;1.90;1.47;;;;;;;;;;5015438;28;20220;-69
2023/10/31 04:01:56;;;;;;;2.73;1.53;;;;;;;;;;5021330;28;20328;-68
2023/10/31 04:04:23;;;;;;;2.67;1.60;;;;;;;;;;5017323;28;20207;-68
2023/10/31 04:06:52;;;;;;;1.67;1.57;;;;;;;;;;5015797;28;20211;-68
2023/10/31 04:09:19;;;;;;;1.40;1.30;;;;;;;;;;5015694;28;20201;-68
2023/10/31 04:11:46;;;;;;;1.57;1.40;;;;;;;;;;5016632;28;20208;-68
2023/10/31 04:14:13;;;;;;;2.93;1.60;;;;;;;;;;5015773;28;20291;-68
2023/10/31 04:16:45;;;;;;;3.87;1.30;;;;;;;;;;5019630;28;20209;-69
2023/10/31 04:19:13;;;;;;;2.03;1.40;;;;;;;;;;5014791;28;20248;-69
2023/10/31 04:21:40;;;;;;;1.77;1.30;;;;;;;;;;5016447;28;20217;-68
2023/10/31 04:24:09;;;;;;;1.50;1.30;;;;;;;;;;5012600;28;20200;-68
2023/10/31 04:26:36;;;;;;;1.47;1.37;;;;;;;;;;5018908;28;20207;-68
2023/10/31 04:29:03;;;;;;;2.40;1.30;;;;;;;;;;5015881;28;20204;-69
2023/10/31 04:31:30;;;;;;;2.73;1.40;;;;;;;;;;5014848;28;20215;-69
2023/10/31 04:33:57;;;;;;;2.80;1.60;;;;;;;;;;5010264;28;20212;-68
2023/10/31 04:36:24;;;;;;;2.20;1.77;;;;;;;;;;5015763;28;21695;-69
2023/10/31 04:38:52;;;;;;;3.27;1.40;;;;;;;;;;5021337;28;20230;-68
2023/10/31 04:41:20;;;;;;;1.50;1.40;;;;;;;;;;5011447;28;20243;-68
2023/10/31 04:43:47;;;;;;;5.27;1.70;;;;;;;;;;5016528;28;20204;-68
2023/10/31 04:46:14;;;;;;;1.60;1.50;;;;;;;;;;5015531;28;20204;-68
2023/10/31 04:48:41;;;;;;;1.90;1.70;;;;;;;;;;5013338;28;20205;-68
2023/10/31 04:51:08;;;;;;;2.50;1.97;;;;;;;;;;5018076;28;20236;-69
2023/10/31 04:53:36;;;;;;;2.77;1.50;;;;;;;;;;5021204;28;20216;-68
2023/10/31 04:56:03;;;;;;;2.90;1.70;;;;;;;;;;5014623;28;20215;-70
2023/10/31 04:58:31;;;;;;;3.03;1.80;;;;;;;;;;5017922;28;20238;-68
2023/10/31 05:00:59;;;;;;;2.70;1.73;;;;;;;;;;5013954;28;20212;-68
2023/10/31 05:03:26;;;;;;;2.07;1.40;;;;;;;;;;5013824;28;20212;-68
2023/10/31 05:05:53;;;;;;;2.17;1.77;;;;;;;;;;5010586;28;20209;-68
2023/10/31 05:08:21;;;;;;;2.37;1.90;;;;;;;;;;5016049;28;20213;-68
2023/10/31 05:10:48;;;;;;;1.80;1.70;;;;;;;;;;5017479;28;20209;-69
2023/10/31 05:13:15;;;;;;;2.27;1.83;;;;;;;;;;5013482;28;20215;-67
2023/10/31 05:15:43;;;;;;;1.73;1.63;;;;;;;;;;5011222;28;20210;-67
2023/10/31 05:18:11;;;;;;;1.87;1.60;;;;;;;;;;5015263;28;20228;-67
2023/10/31 05:20:38;;;;;;;1.83;1.70;;;;;;;;;;5019710;28;20211;-68
2023/10/31 05:23:05;;;;;;;2.10;1.70;;;;;;;;;;5017447;28;20228;-67
2023/10/31 05:25:32;;;;;;;2.20;1.70;;;;;;;;;;5016544;28;20212;-67
2023/10/31 05:28:00;;;;;;;1.97;1.83;;;;;;;;;;5014022;28;20298;-67
2023/10/31 05:30:27;;;;;;;1.50;1.40;;;;;;;;;;5015732;28;20208;-68
2023/10/31 05:32:55;;;;;;;1.60;1.50;;;;;;;;;;5015161;28;20200;-67
2023/10/31 05:35:22;;;;;;;2.23;1.60;;;;;;;;;;5011681;28;20211;-67
2023/10/31 05:37:50;;;;;;;1.50;1.40;;;;;;;;;;5014380;28;20212;-67
2023/10/31 05:40:17;;;;;;;3.53;1.60;;;;;;;;;;5012265;28;20228;-69
2023/10/31 05:42:44;;;;;;;2.83;1.40;;;;;;;;;;5020427;28;20227;-67
2023/10/31 05:45:11;;;;;;;2.07;1.70;;;;;;;;;;5016621;28;20204;-68
2023/10/31 05:47:38;;;;;;;1.70;1.60;;;;;;;;;;5009830;28;20215;-67
2023/10/31 05:50:08;;;;;;;1.93;1.47;;;;;;;;;;5011674;28;20215;-67
2023/10/31 05:52:36;;;;;;;4.63;1.70;;;;;;;;;;5016689;28;20322;-67
2023/10/31 05:55:04;;;;;;;2.60;1.50;;;;;;;;;;5012780;28;20323;-67
2023/10/31 05:57:31;;;;;;;4.63;1.50;;;;;;;;;;5015755;28;20214;-67
2023/10/31 05:59:58;;;;;;;1.87;1.60;;;;;;;;;;5012798;28;20228;-67
2023/10/31 06:02:26;;;;;;;3.30;1.50;;;;;;;;;;5009182;28;20569;-67
2023/10/31 06:04:53;;;;;;;1.60;1.50;;;;;;;;;;5036627;28;20207;-67
2023/10/31 06:07:21;;;;;;;1.80;1.70;;;;;;;;;;5032753;28;20222;-67
2023/10/31 06:09:48;;;;;;;1.90;1.60;;;;;;;;;;5032917;28;20196;-67
2023/10/31 06:12:15;;;;;;;2.20;1.57;;;;;;;;;;5031404;28;20211;-67
2023/10/31 06:14:43;;;;;;;3.27;1.70;;;;;;;;;;5040620;28;20270;-68
2023/10/31 06:17:10;;;;;;;2.17;1.60;;;;;;;;;;5042307;28;20218;-67
2023/10/31 06:19:37;;;;;;;1.37;1.37;;;;;;;;;;5035313;28;20234;-67
2023/10/31 06:22:05;;;;;;;2.43;1.50;;;;;;;;;;5034646;28;20203;-68
2023/10/31 06:24:33;;;;;;;1.60;1.27;;;;;;;;;;5037024;28;20204;-68
2023/10/31 06:27:00;;;;;;;2.10;1.57;;;;;;;;;;5039166;28;20201;-69
2023/10/31 06:29:28;;;;;;;3.80;1.43;;;;;;;;;;5028706;28;20210;-67
2023/10/31 06:31:55;;;;;;;3.33;1.20;;;;;;;;;;5040780;28;20211;-69
2023/10/31 06:34:22;;;;;;;1.30;1.20;;;;;;;;;;5039046;28;20212;-68
2023/10/31 06:36:49;;;;;;;1.47;1.37;;;;;;;;;;5037864;28;20203;-68
2023/10/31 06:39:16;;;;;;;1.73;1.30;;;;;;;;;;5033608;28;20228;-68
2023/10/31 06:41:45;;;;;;;2.37;1.33;;;;;;;;;;5042656;28;20199;-68
2023/10/31 06:44:12;;;;;;;1.30;1.20;;;;;;;;;;5034179;28;20214;-68
2023/10/31 06:46:39;;;;;;;1.40;1.30;;;;;;;;;;5038510;28;20258;-68
2023/10/31 06:49:06;;;;;;;2.30;1.43;;;;;;;;;;5040990;28;20204;-63
2023/10/31 06:51:33;;;;;;;1.93;1.50;;;;;;;;;;5037982;28;20324;-65
2023/10/31 06:54:00;;;;;;;2.13;1.40;;;;;;;;;;5042235;28;20211;-64
2023/10/31 06:56:28;;;;;;;4.40;1.40;;;;;;;;;;5043091;28;20214;-64
2023/10/31 06:58:57;;;;;;;2.57;1.23;;;;;;;;;;5042442;28;20224;-63
2023/10/31 07:01:24;;;;;;;2.37;1.40;;;;;;;;;;5041839;28;20206;-64
2023/10/31 07:03:51;;;;;;;1.83;1.53;;;;;;;;;;5043568;28;20215;-63
2023/10/31 07:06:18;;;;;;;1.40;1.30;;;;;;;;;;5041161;28;20207;-65
2023/10/31 07:08:45;;;;;;;1.57;1.40;;;;;;;;;;5041271;28;20196;-64
2023/10/31 07:11:12;;;;;;;1.50;1.40;;;;;;;;;;5042730;28;20302;-64
2023/10/31 07:13:39;;;;;;;2.07;1.33;;;;;;;;;;5046229;28;20203;-64
2023/10/31 07:16:08;;;;;;;2.73;1.50;;;;;;;;;;5038896;28;20204;-64
2023/10/31 07:18:36;;;;;;;1.27;1.20;;;;;;;;;;5040000;28;20211;-64
2023/10/31 07:21:03;;;;;;;1.50;1.33;;;;;;;;;;5037204;28;20198;-65
2023/10/31 07:23:30;;;;;;;1.80;1.50;;;;;;;;;;5043402;28;20200;-64
2023/10/31 07:25:57;;;;;;;1.33;1.20;;;;;;;;;;5037739;28;20201;-64
2023/10/31 07:28:24;;;;;;;2.27;1.33;;;;;;;;;;5041413;28;20203;-64
2023/10/31 07:30:51;;;;;;;1.37;1.30;;;;;;;;;;5034247;28;20207;-65
2023/10/31 07:33:20;;;;;;;1.90;1.20;;;;;;;;;;5039856;28;20200;-64
2023/10/31 07:35:47;;;;;;;1.93;1.37;;;;;;;;;;5045262;28;20199;-64
2023/10/31 07:38:14;;;;;;;1.67;1.30;;;;;;;;;;5041891;28;20302;-64
2023/10/31 07:40:41;;;;;;;2.30;1.40;;;;;;;;;;5036716;28;20227;-64
2023/10/31 07:43:08;;;;;;;3.10;1.80;;;;;;;;;;5044541;28;20192;-64
2023/10/31 07:45:36;;;;;;;3.23;1.47;;;;;;;;;;5043829;28;20212;-64
2023/10/31 07:48:03;;;;;;;1.80;1.30;;;;;;;;;;5036880;28;20211;-64
2023/10/31 07:50:32;;;;;;;1.67;1.50;;;;;;;;;;5032480;28;20203;-63
2023/10/31 07:52:59;;;;;;;3.00;1.60;;;;;;;;;;5029208;28;20235;-65
2023/10/31 07:55:26;;;;;;;1.93;1.50;;;;;;;;;;5035541;28;20220;-64
2023/10/31 07:57:53;;;;;;;4.73;2.40;;;;;;;;;;5038716;28;20204;-68
2023/10/31 08:00:21;;;;;;;3.57;1.90;;;;;;;;;;5034409;28;20331;-67
2023/10/31 08:02:48;;;;;;;2.67;1.37;;;;;;;;;;5035332;28;20207;-68
2023/10/31 08:05:16;;;;;;;2.30;1.70;;;;;;;;;;5044320;28;20203;-68
2023/10/31 08:07:45;;;;;;;4.53;1.40;;;;;;;;;;5045162;28;20212;-68
2023/10/31 08:10:12;;;;;;;3.67;1.60;;;;;;;;;;5045456;28;20234;-68
2023/10/31 08:12:39;;;;;;;2.90;1.33;;;;;;;;;;5039226;28;20210;-68
2023/10/31 08:15:07;;;;;;;1.60;1.40;;;;;;;;;;5042689;28;20461;-68
2023/10/31 08:17:34;;;;;;;4.63;1.37;;;;;;;;;;5033789;28;20202;-68
2023/10/31 08:20:03;;;;;;;3.00;1.40;;;;;;;;;;5037329;28;20223;-68
2023/10/31 08:22:30;;;;;;;1.80;1.27;;;;;;;;;;5040339;28;20204;-67
2023/10/31 08:24:58;;;;;;;5.60;1.67;;;;;;;;;;5047242;28;20207;-67
2023/10/31 08:27:26;;;;;;;2.77;1.40;;;;;;;;;;5031038;28;20207;-68
2023/10/31 08:29:53;;;;;;;2.03;1.37;;;;;;;;;;5038123;28;20212;-68
2023/10/31 08:32:24;;;;;;;2.97;1.60;;;;;;;;;;5035272;28;20235;-67
2023/10/31 08:34:51;;;;;;;3.73;1.37;;;;;;;;;;5036879;28;20242;-67
2023/10/31 08:37:18;;;;;;;5.03;1.50;;;;;;;;;;5032983;28;20200;-67
2023/10/31 08:39:45;;;;;;;2.83;1.30;;;;;;;;;;5037993;28;20220;-67
2023/10/31 08:42:14;;;;;;;4.50;1.80;;;;;;;;;;5040653;28;20204;-67
2023/10/31 08:44:41;;;;;;;3.10;1.53;;;;;;;;;;5041576;28;20210;-68
2023/10/31 08:47:09;;;;;;;3.57;1.40;;;;;;;;;;5031637;28;20207;-67
2023/10/31 08:49:36;;;;;;;2.73;1.80;;;;;;;;;;5038228;28;20199;-67
2023/10/31 08:52:04;;;;;;;6.80;1.50;;;;;;;;;;5036367;28;20239;-67
2023/10/31 08:54:31;;;;;;;2.90;1.40;;;;;;;;;;5031227;28;20218;-67
2023/10/31 08:57:00;;;;;;;2.77;1.30;;;;;;;;;;5043176;28;20216;-68
2023/10/31 08:59:28;;;;;;;4.13;1.40;;;;;;;;;;5035128;28;20227;-67
2023/10/31 09:01:56;;;;;;;3.23;1.40;;;;;;;;;;5038941;28;20203;-67
2023/10/31 09:04:23;;;;;;;2.73;1.40;;;;;;;;;;5039709;28;20212;-67
2023/10/31 09:06:51;;;;;;;9.63;1.60;;;;;;;;;;5038541;28;20414;-67
2023/10/31 09:09:18;;;;;;;3.87;1.23;;;;;;;;;;5037075;28;20201;-63
2023/10/31 09:11:45;;;;;;;5.73;1.50;;;;;;;;;;5042910;28;20211;-63
2023/10/31 09:14:12;;;;;;;4.67;1.40;;;;;;;;;;5036014;28;20208;-64
2023/10/31 09:16:41;;;;;;;3.20;1.40;;;;;;;;;;5041738;28;20267;-63
2023/10/31 09:19:08;;;;;;;6.27;1.60;;;;;;;;;;5040964;28;20197;-63
2023/10/31 09:21:35;;;;;;;5.17;1.70;;;;;;;;;;5040366;28;20253;-63
2023/10/31 09:24:02;;;;;;;5.23;1.43;;;;;;;;;;5037501;28;20291;-63
2023/10/31 09:26:29;;;;;;;3.83;1.40;;;;;;;;;;5035523;28;20192;-64
2023/10/31 09:28:57;;;;;;;2.83;1.50;;;;;;;;;;5044129;28;20210;-63
2023/10/31 09:31:24;;;;;;;3.07;1.40;;;;;;;;;;5035173;28;20210;-63
2023/10/31 09:33:52;;;;;;;4.73;1.60;;;;;;;;;;5036285;28;20207;-64
2023/10/31 09:36:21;;;;;;;7.07;1.80;;;;;;;;;;5035670;28;20218;-63
2023/10/31 09:38:48;;;;;;;4.60;1.63;;;;;;;;;;5037935;28;20206;-63
2023/10/31 09:41:15;;;;;;;4.40;1.80;;;;;;;;;;5036666;28;20216;-63
2023/10/31 09:43:42;;;;;;;6.67;1.80;;;;;;;;;;5033033;28;20215;-63
2023/10/31 09:46:10;;;;;;;4.03;1.63;;;;;;;;;;5035751;28;20212;-63
2023/10/31 09:48:37;;;;;;;7.90;1.90;;;;;;;;;;5035172;28;20204;-64
2023/10/31 09:51:07;;;;;;;5.20;1.60;;;;;;;;;;5041870;28;20234;-64
2023/10/31 09:53:35;;;;;;;2.93;1.50;;;;;;;;;;5045543;28;20200;-62
2023/10/31 09:56:02;;;;;;;8.77;1.57;;;;;;;;;;5040061;28;20210;-63
2023/10/31 09:58:29;;;;;;;6.20;1.50;;;;;;;;;;5041045;28;20204;-63
2023/10/31 10:00:57;;;;;;;4.17;1.40;;;;;;;;;;5042143;28;20448;-63
2023/10/31 10:03:25;;;;;;;5.10;1.47;;;;;;;;;;5037135;28;20330;-63
2023/10/31 10:05:52;;;;;;;5.43;1.70;;;;;;;;;;5033251;28;20203;-62
2023/10/31 10:08:21;;;;;;;4.37;1.23;;;;;;;;;;5035925;28;20198;-62
2023/10/31 10:10:49;;;;;;;7.00;1.73;;;;;;;;;;5039956;28;20204;-63
2023/10/31 10:13:18;;;;;;;6.23;1.60;;;;;;;;;;5035825;28;20208;-62
2023/10/31 10:15:48;;;;;;;5.53;1.43;;;;;;;;;;5036533;28;20206;-63
2023/10/31 10:18:26;;;;;;;5.30;1.60;;;;;;;;;;5037442;28;20208;-63
2023/10/31 10:20:56;;;;;;;5.13;1.70;;;;;;;;;;5036063;28;20222;-63
2023/10/31 10:23:25;;;;;;;2.53;1.50;;;;;;;;;;5037274;28;20204;-64
2023/10/31 10:25:52;;;;;;;3.60;1.60;;;;;;;;;;5033794;28;20211;-63
2023/10/31 10:28:19;;;;;;;4.70;1.40;;;;;;;;;;5037902;28;20207;-64
2023/10/31 10:30:48;;;;;;;6.80;1.60;;;;;;;;;;5039820;28;20223;-63
2023/10/31 10:33:15;;;;;;;2.97;1.30;;;;;;;;;;5042979;28;20250;-63
2023/10/31 10:35:42;;;;;;;5.20;1.80;;;;;;;;;;5043643;28;20223;-63
2023/10/31 10:38:12;;;;;;;6.00;1.70;;;;;;;;;;5043741;28;20200;-63
2023/10/31 10:40:42;;;;;;;4.90;1.73;;;;;;;;;;5040489;28;20266;-63
2023/10/31 10:43:12;;;;;;;5.57;1.70;;;;;;;;;;5039872;28;20208;-63
2023/10/31 10:45:40;;;;;;;5.80;1.53;;;;;;;;;;5043501;28;20215;-63
2023/10/31 10:48:10;;;;;;;3.37;1.57;;;;;;;;;;5036566;28;20204;-64
2023/10/31 10:50:41;;;;;;;2.10;1.23;;;;;;;;;;5043698;28;20206;-64
2023/10/31 10:53:11;;;;;;;1.97;0.97;;;;;;;;;;5047265;28;20214;-64
2023/10/31 10:55:40;;;;;;;3.53;1.20;;;;;;;;;;5042389;28;20204;-63
2023/10/31 10:58:12;;;;;;;2.90;1.10;;;;;;;;;;5040300;28;20208;-64
2023/10/31 11:00:39;;;;;;;2.70;1.20;;;;;;;;;;5045045;28;20219;-63
2023/10/31 11:03:07;;;;;;;4.18;1.10;;;;;;;;;;5044758;28;20203;-64
2023/10/31 11:05:35;;;;;;;4.93;1.20;;;;;;;;;;5039778;28;20242;-64
2023/10/31 11:08:03;;;;;;;3.17;1.30;;;;;;;;;;5039017;28;20204;-63
2023/10/31 11:10:30;;;;;;;1.30;0.80;;;;;;;;;;5041498;28;20215;-63
2023/10/31 11:12:58;;;;;;;3.33;1.00;;;;;;;;;;5042788;28;20207;-63
2023/10/31 11:15:27;;;;;;;1.70;0.90;;;;;;;;;;5042397;28;20200;-63
2023/10/31 11:17:54;;;;;;;5.57;1.33;;;;;;;;;;5046153;28;20282;-63
2023/10/31 11:20:22;;;;;;;3.23;1.10;;;;;;;;;;5045628;28;20219;-64
2023/10/31 11:22:51;;;;;;;1.17;0.70;;;;;;;;;;5045049;28;20276;-63
2023/10/31 11:25:20;;;;;;;1.73;0.97;;;;;;;;;;5047218;28;20208;-63
2023/10/31 11:27:47;;;;;;;2.13;0.87;;;;;;;;;;5051032;28;20211;-66
2023/10/31 11:30:21;;;;;;;2.30;0.70;;;;;;;;;;5040301;28;20207;-66
2023/10/31 11:32:50;;;;;;;2.13;0.70;;;;;;;;;;5039700;28;20217;-66
2023/10/31 11:35:18;;;;;;;2.43;0.80;;;;;;;;;;5042958;28;20203;-66
2023/10/31 11:37:49;;;;;;;2.97;0.77;;;;;;;;;;5033697;28;20278;-66
2023/10/31 11:40:24;;;;;;;0.90;0.70;;;;;;;;;;5037769;28;20231;-67
2023/10/31 11:42:52;;;;;;;0.97;0.50;;;;;;;;;;5036265;28;20196;-66
2023/10/31 11:45:27;;;;;;;1.50;0.73;;;;;;;;;;5044779;28;20282;-67
2023/10/31 11:47:56;;;;;;;1.05;0.52;;;;;;;;;;5039674;28;20196;-68
2023/10/31 11:50:23;;;;;;;0.77;0.70;;;;;;;;;;5046073;28;20211;-66
2023/10/31 11:53:00;;;;;;;2.73;0.90;;;;;;;;;;5042531;28;20242;-66
2023/10/31 11:55:28;;;;;;;2.27;0.80;;;;;;;;;;5036696;28;20484;-67
2023/10/31 11:57:55;;;;;;;0.97;0.70;;;;;;;;;;5042646;28;20216;-67
2023/10/31 12:00:23;;;;;;;0.93;0.80;;;;;;;;;;5032432;28;20219;-67
2023/10/31 12:03:01;;;;;;;1.17;0.73;;;;;;;;;;5039773;28;20207;-67
2023/10/31 12:05:29;;;;;;;1.90;1.03;;;;;;;;;;5039325;28;20205;-67
2023/10/31 12:07:57;;;;;;;1.17;0.60;;;;;;;;;;5040805;28;20207;-67
2023/10/31 12:10:25;;;;;;;0.97;0.80;;;;;;;;;;5045013;28;20206;-67
2023/10/31 12:12:52;;;;;;;0.80;0.70;;;;;;;;;;5035159;28;20207;-67
2023/10/31 12:15:19;;;;;;;3.97;2.60;;;;;;;;;;5035813;28;20253;-67
2023/10/31 12:17:46;;;;;;;2.00;0.80;;;;;;;;;;5037904;28;20204;-67
2023/10/31 12:20:15;;;;;;;1.20;0.80;;;;;;;;;;5040226;28;20203;-67
2023/10/31 12:22:42;;;;;;;1.20;0.60;;;;;;;;;;5043914;28;20329;-67
2023/10/31 12:25:11;;;;;;;1.43;0.70;;;;;;;;;;5045823;28;20211;-67
2023/10/31 12:27:45;;;;;;;0.70;0.60;;;;;;;;;;5041496;28;20207;-68
2023/10/31 12:30:12;;;;;;;0.97;0.90;;;;;;;;;;5041722;28;20211;-67
2023/10/31 12:32:41;;;;;;;2.30;0.80;;;;;;;;;;5041185;28;20199;-67
2023/10/31 12:35:08;;;;;;;2.17;0.90;;;;;;;;;;5045413;28;20207;-67
2023/10/31 12:37:37;;;;;;;0.93;0.87;;;;;;;;;;5047233;28;20204;-64
2023/10/31 12:40:04;;;;;;;0.70;0.70;;;;;;;;;;5040264;28;20313;-64
2023/10/31 12:42:32;;;;;;;1.23;0.80;;;;;;;;;;5036944;28;20234;-64
2023/10/31 12:45:00;;;;;;;2.15;1.30;;;;;;;;;;5038825;28;20207;-64
2023/10/31 12:47:27;;;;;;;1.20;0.90;;;;;;;;;;5039567;28;20203;-64
2023/10/31 12:50:10;;;;;;;1.17;0.87;;;;;;;;;;5038745;28;20207;-63
2023/10/31 12:52:48;;;;;;;2.30;1.20;;;;;;;;;;5037028;28;20236;-63
2023/10/31 12:55:16;;;;;;;3.60;1.10;;;;;;;;;;5038498;28;20216;-64
2023/10/31 12:57:43;;;;;;;2.38;0.90;;;;;;;;;;5045893;28;20209;-64
2023/10/31 13:00:12;;;;;;;1.83;0.80;;;;;;;;;;5042670;28;20215;-64
2023/10/31 13:02:40;;;;;;;1.07;0.83;;;;;;;;;;5036552;28;20228;-64
2023/10/31 13:05:12;;;;;;;2.08;0.70;;;;;;;;;;5036292;28;20200;-64
2023/10/31 13:07:39;;;;;;;2.20;0.90;;;;;;;;;;5038380;28;20243;-63
2023/10/31 13:10:09;;;;;;;3.00;0.80;;;;;;;;;;5043231;28;20207;-64
2023/10/31 13:12:36;;;;;;;2.77;0.80;;;;;;;;;;5037758;28;20263;-63
2023/10/31 13:15:03;;;;;;;3.20;0.80;;;;;;;;;;5041259;28;20203;-64
2023/10/31 13:17:32;;;;;;;2.17;0.90;;;;;;;;;;5033956;28;20306;-63
2023/10/31 13:20:00;;;;;;;2.37;0.87;;;;;;;;;;5045336;28;20295;-63
2023/10/31 13:22:27;;;;;;;1.60;1.00;;;;;;;;;;5043929;28;20236;-63
2023/10/31 13:24:54;;;;;;;1.83;0.80;;;;;;;;;;5033446;28;20211;-63
2023/10/31 13:27:22;;;;;;;3.10;1.13;;;;;;;;;;5038994;28;20203;-63
2023/10/31 13:29:49;;;;;;;1.07;0.97;;;;;;;;;;5037868;28;20207;-63
2023/10/31 13:32:17;;;;;;;2.23;1.00;;;;;;;;;;5048154;28;20273;-63
2023/10/31 13:34:45;;;;;;;3.00;1.27;;;;;;;;;;5044069;28;20195;-62
2023/10/31 13:37:12;;;;;;;1.77;1.10;;;;;;;;;;5040167;28;20211;-62
2023/10/31 13:39:39;;;;;;;1.30;0.90;;;;;;;;;;5041387;28;20200;-62
2023/10/31 13:42:07;;;;;;;2.40;1.00;;;;;;;;;;5040688;28;20218;-63
2023/10/31 13:44:35;;;;;;;1.57;1.30;;;;;;;;;;5039741;28;20275;-63
2023/10/31 13:47:03;;;;;;;3.80;1.27;;;;;;;;;;5037770;28;20204;-63
2023/10/31 13:49:30;;;;;;;2.03;1.20;;;;;;;;;;5037954;28;20258;-67
2023/10/31 13:51:57;;;;;;;1.53;1.13;;;;;;;;;;5038845;28;20261;-66
2023/10/31 13:54:24;;;;;;;1.90;1.10;;;;;;;;;;5037605;28;20236;-67
2023/10/31 13:56:51;;;;;;;1.53;1.00;;;;;;;;;;5040530;28;20296;-67
2023/10/31 13:59:19;;;;;;;1.10;1.00;;;;;;;;;;5038272;28;20294;-66
2023/10/31 14:01:47;;;;;;;2.10;0.90;;;;;;;;;;5038985;28;20314;-66
2023/10/31 14:04:15;;;;;;;3.97;1.20;;;;;;;;;;5033774;28;20454;-67
2023/10/31 14:06:42;;;;;;;1.33;1.10;;;;;;;;;;5042207;28;20214;-67
2023/10/31 14:09:11;;;;;;;1.73;1.10;;;;;;;;;;5037671;28;20204;-67
2023/10/31 14:11:38;;;;;;;2.93;1.20;;;;;;;;;;5039825;28;20214;-67
2023/10/31 14:14:09;;;;;;;1.53;1.33;;;;;;;;;;5038929;28;20200;-67
2023/10/31 14:16:36;;;;;;;3.83;1.50;;;;;;;;;;5037536;28;20200;-67
2023/10/31 14:19:04;;;;;;;2.63;1.20;;;;;;;;;;5035643;28;20210;-67
2023/10/31 14:21:32;;;;;;;1.43;1.33;;;;;;;;;;5037597;28;20208;-67
2023/10/31 14:23:59;;;;;;;1.93;1.20;;;;;;;;;;5035033;28;20204;-67
2023/10/31 14:26:26;;;;;;;2.27;1.30;;;;;;;;;;5042868;28;20212;-67
2023/10/31 14:28:53;;;;;;;1.30;1.20;;;;;;;;;;5040800;28;20211;-68
2023/10/31 14:31:20;;;;;;;1.87;1.20;;;;;;;;;;5042153;28;20192;-67
2023/10/31 14:33:48;;;;;;;2.47;1.10;;;;;;;;;;5036482;28;20208;-67
2023/10/31 14:36:16;;;;;;;2.73;1.20;;;;;;;;;;5038012;28;20199;-67
2023/10/31 14:38:44;;;;;;;1.53;1.10;;;;;;;;;;5041353;28;20200;-67
2023/10/31 14:41:11;;;;;;;3.73;1.27;;;;;;;;;;5038057;28;20207;-67
2023/10/31 14:43:38;;;;;;;3.43;1.13;;;;;;;;;;5042739;28;20218;-67
2023/10/31 14:46:07;;;;;;;1.77;1.20;;;;;;;;;;5033371;28;20293;-67